createdAt,value
2019-04-28T00:02:31.833Z,8.93
2019-04-28T00:07:36.351Z,8.90
2019-04-28T00:12:41.309Z,8.93
2019-04-28T00:17:45.957Z,8.96
2019-04-28T00:22:55.110Z,8.99
2019-04-28T00:27:59.528Z,8.98
2019-04-28T00:33:05.147Z,8.97
2019-04-28T00:38:11.327Z,8.88
2019-04-28T00:43:16.826Z,8.67
2019-04-28T00:48:21.833Z,8.71
2019-04-28T00:53:26.252Z,8.61
2019-04-28T00:58:31.892Z,8.52
2019-04-28T01:03:37.364Z,8.44
2019-04-28T01:08:42.042Z,8.46
2019-04-28T01:13:46.739Z,8.45
2019-04-28T01:19:04.451Z,8.43
2019-04-28T01:24:09.512Z,8.30
2019-04-28T01:29:14.322Z,8.29
2019-04-28T01:34:22.859Z,8.25
2019-04-28T01:39:27.390Z,8.15
2019-04-28T01:44:31.859Z,8.15
2019-04-28T01:49:36.387Z,8.11
2019-04-28T01:54:40.878Z,8.09
2019-04-28T01:59:45.453Z,8.09
2019-04-28T02:04:50.032Z,8.09
2019-04-28T02:09:55.507Z,8.09
2019-04-28T02:15:01.028Z,8.09
2019-04-28T02:20:10.421Z,8.10
2019-04-28T02:25:15.966Z,8.04
2019-04-28T02:30:26.553Z,8.12
2019-04-28T02:35:26.810Z,8.14
2019-04-28T02:40:31.342Z,8.21
2019-04-28T02:45:41.197Z,8.22
2019-04-28T02:50:52.444Z,8.22
2019-04-28T02:56:01.138Z,8.24
2019-04-28T03:01:15.217Z,8.25
2019-04-28T03:06:11.959Z,8.25
2019-04-28T03:11:16.537Z,8.29
2019-04-28T03:16:23.175Z,8.47
2019-04-28T03:21:27.270Z,8.66
2019-04-28T03:26:43.383Z,8.84
2019-04-28T03:32:22.751Z,8.94
2019-04-28T03:37:11.276Z,9.02
2019-04-28T03:42:16.519Z,9.12
2019-04-28T03:47:21.638Z,9.17
2019-04-28T03:52:26.132Z,9.27
2019-04-28T03:57:31.378Z,9.21
2019-04-28T04:02:36.028Z,9.00
2019-04-28T04:07:43.133Z,8.90
2019-04-28T04:12:50.668Z,8.79
2019-04-28T04:18:02.150Z,8.73
2019-04-28T04:23:06.593Z,8.86
2019-04-28T04:28:12.716Z,9.05
2019-04-28T04:33:17.212Z,9.31
2019-04-28T04:38:21.957Z,9.32
2019-04-28T04:43:26.466Z,9.33
2019-04-28T04:48:31.270Z,9.35
2019-04-28T04:53:37.749Z,9.42
2019-04-28T04:58:42.209Z,9.47
2019-04-28T05:03:54.412Z,9.51
2019-04-28T05:09:00.933Z,9.57
2019-04-28T05:14:09.651Z,9.63
2019-04-28T05:19:13.819Z,9.64
2019-04-28T05:24:36.320Z,9.74
2019-04-28T05:29:40.790Z,9.77
2019-04-28T05:34:46.556Z,9.76
2019-04-28T05:39:52.501Z,9.80
2019-04-28T05:44:57.157Z,9.88
2019-04-28T05:50:12.306Z,9.95
2019-04-28T05:55:24.754Z,9.96
2019-04-28T06:00:41.715Z,10.01
2019-04-28T06:05:45.747Z,10.04
2019-04-28T06:10:50.174Z,10.17
2019-04-28T06:15:54.667Z,10.17
2019-04-28T06:20:59.245Z,10.25
2019-04-28T06:26:03.806Z,10.24
2019-04-28T06:31:08.405Z,10.36
2019-04-28T06:36:12.905Z,10.32
2019-04-28T06:41:17.327Z,10.29
2019-04-28T06:46:21.926Z,10.27
2019-04-28T06:51:26.459Z,10.34
2019-04-28T06:56:30.880Z,10.44
2019-04-28T07:01:35.504Z,10.48
2019-04-28T07:06:39.999Z,10.51
2019-04-28T07:11:44.433Z,10.61
2019-04-28T07:16:48.882Z,10.70
2019-04-28T07:22:00.880Z,10.86
2019-04-28T07:27:06.317Z,11.00
2019-04-28T07:32:11.176Z,11.21
2019-04-28T07:37:15.926Z,11.25
2019-04-28T07:42:20.691Z,11.61
2019-04-28T07:47:25.219Z,11.67
2019-04-28T07:52:31.311Z,11.87
2019-04-28T07:57:35.972Z,11.80
2019-04-28T08:02:40.440Z,11.83
2019-04-28T08:07:45.202Z,11.78
2019-04-28T08:12:49.772Z,11.84
2019-04-28T08:17:54.543Z,11.97
2019-04-28T08:23:00.099Z,12.05
2019-04-28T08:28:04.888Z,12.26
2019-04-28T08:33:17.239Z,12.37
2019-04-28T08:38:21.735Z,12.41
2019-04-28T08:43:26.369Z,12.62
2019-04-28T08:48:30.892Z,12.71
2019-04-28T08:53:35.315Z,12.89
2019-04-28T08:58:39.791Z,13.26
2019-04-28T09:03:45.341Z,13.20
2019-04-28T09:08:49.874Z,13.24
2019-04-28T09:13:54.531Z,13.24
2019-04-28T09:18:59.123Z,13.25
2019-04-28T09:24:03.723Z,13.33
2019-04-28T09:29:08.235Z,13.35
2019-04-28T09:34:12.811Z,13.49
2019-04-28T09:39:18.986Z,13.59
2019-04-28T09:44:23.442Z,13.72
2019-04-28T09:49:28.034Z,13.91
2019-04-28T09:54:32.524Z,14.19
2019-04-28T09:59:37.049Z,14.00
2019-04-28T10:04:42.305Z,14.18
2019-04-28T10:09:47.849Z,14.26
2019-04-28T10:14:52.409Z,14.23
2019-04-28T10:19:56.937Z,14.11
2019-04-28T10:25:01.539Z,14.25
2019-04-28T10:30:09.547Z,14.27
2019-04-28T10:35:14.315Z,14.30
2019-04-28T10:40:23.584Z,14.21
2019-04-28T10:45:29.694Z,14.29
2019-04-28T10:50:34.199Z,14.21
2019-04-28T10:55:38.651Z,14.44
2019-04-28T11:00:43.352Z,14.59
2019-04-28T11:05:47.940Z,14.75
2019-04-28T11:10:53.134Z,14.68
2019-04-28T11:15:57.805Z,14.64
2019-04-28T11:21:02.367Z,14.65
2019-04-28T11:26:06.881Z,14.64
2019-04-28T11:31:11.494Z,14.48
2019-04-28T11:36:17.647Z,14.72
2019-04-28T11:41:22.151Z,14.68
2019-04-28T11:46:27.947Z,14.75
2019-04-28T11:51:32.646Z,14.61
2019-04-28T11:56:41.647Z,14.61
2019-04-28T12:01:43.580Z,14.72
2019-04-28T12:06:48.241Z,14.59
2019-04-28T12:12:00.851Z,14.43
2019-04-28T12:17:23.629Z,14.56
2019-04-28T12:22:28.467Z,14.64
2019-04-28T12:27:32.954Z,14.56
2019-04-28T12:32:40.406Z,14.49
2019-04-28T12:37:44.900Z,14.33
2019-04-28T12:42:49.366Z,14.29
2019-04-28T12:47:54.000Z,14.36
2019-04-28T12:52:59.731Z,14.18
2019-04-28T12:58:05.034Z,14.03
2019-04-28T13:03:26.512Z,14.00
2019-04-28T13:08:33.560Z,13.88
2019-04-28T13:13:39.847Z,13.74
2019-04-28T13:18:44.400Z,13.57
2019-04-28T13:23:49.149Z,13.41
2019-04-28T13:28:53.692Z,13.32
2019-04-28T13:34:00.135Z,13.26
2019-04-28T13:39:09.534Z,13.24
2019-04-28T13:44:16.052Z,13.11
2019-04-28T13:49:23.323Z,13.05
2019-04-28T13:54:29.106Z,13.00
2019-04-28T13:59:34.027Z,12.98
2019-04-28T14:04:42.116Z,13.00
2019-04-28T14:09:46.620Z,12.84
2019-04-28T14:14:53.960Z,12.46
2019-04-28T14:19:58.509Z,12.14
2019-04-28T14:25:04.938Z,11.87
2019-04-28T14:30:09.824Z,11.66
2019-04-28T14:35:14.837Z,11.49
2019-04-28T14:40:19.447Z,11.45
2019-04-28T14:45:24.893Z,11.39
2019-04-28T14:50:29.341Z,11.38
2019-04-28T14:55:34.028Z,11.39
2019-04-28T15:00:40.445Z,11.36
2019-04-28T15:05:46.727Z,11.34
2019-04-28T15:11:05.326Z,11.32
2019-04-28T15:16:09.870Z,11.31
2019-04-28T15:21:14.698Z,11.26
2019-04-28T15:26:19.320Z,11.23
2019-04-28T15:31:23.985Z,11.24
2019-04-28T15:36:28.723Z,11.23
2019-04-28T15:41:33.164Z,11.19
2019-04-28T15:46:37.678Z,11.19
2019-04-28T15:51:42.376Z,11.23
2019-04-28T15:56:47.674Z,11.24
2019-04-28T16:01:52.272Z,11.20
2019-04-28T16:06:58.380Z,11.19
2019-04-28T16:12:03.115Z,11.14
2019-04-28T16:17:07.714Z,11.04
2019-04-28T16:22:12.597Z,10.98
2019-04-28T16:27:17.034Z,10.89
2019-04-28T16:32:21.611Z,10.84
2019-04-28T16:37:38.550Z,10.76
2019-04-28T16:42:36.093Z,10.73
2019-04-28T16:47:40.795Z,10.68
2019-04-28T16:52:45.402Z,10.64
2019-04-28T16:58:00.301Z,10.58
2019-04-28T17:03:05.127Z,10.53
2019-04-28T17:08:09.732Z,10.46
2019-04-28T17:13:15.544Z,10.38
2019-04-28T17:18:21.260Z,10.36
2019-04-28T17:23:25.988Z,10.34
2019-04-28T17:28:30.665Z,10.35
2019-04-28T17:33:35.300Z,10.31
2019-04-28T17:38:40.054Z,10.27
2019-04-28T17:43:44.779Z,10.21
2019-04-28T17:48:56.945Z,10.14
2019-04-28T17:54:03.588Z,10.09
2019-04-28T17:59:08.329Z,10.03
2019-04-28T18:04:23.750Z,10.00
2019-04-28T18:09:29.678Z,9.93
2019-04-28T18:14:34.837Z,9.91
2019-04-28T18:19:39.371Z,9.87
2019-04-28T18:24:44.848Z,9.85
2019-04-28T18:29:49.395Z,9.83
2019-04-28T18:35:07.580Z,9.80
2019-04-28T18:40:17.223Z,9.79
2019-04-28T18:45:21.932Z,9.77
2019-04-28T18:50:26.556Z,9.76
2019-04-28T18:55:31.065Z,9.77
2019-04-28T19:00:37.342Z,9.79
2019-04-28T19:05:43.585Z,9.78
2019-04-28T19:10:50.851Z,9.76
2019-04-28T19:16:07.330Z,9.75
2019-04-28T19:21:11.919Z,9.72
2019-04-28T19:26:16.619Z,9.72
2019-04-28T19:31:22.215Z,9.68
2019-04-28T19:36:26.810Z,9.66
2019-04-28T19:41:31.237Z,9.66
2019-04-28T19:46:35.823Z,9.66
2019-04-28T19:51:40.363Z,9.68
2019-04-28T19:56:46.639Z,9.69
2019-04-28T20:01:52.412Z,9.66
2019-04-28T20:06:57.028Z,9.67
2019-04-28T20:12:01.495Z,9.68
2019-04-28T20:17:06.121Z,9.66
2019-04-28T20:22:10.791Z,9.64
2019-04-28T20:27:15.408Z,9.62
2019-04-28T20:32:19.845Z,9.61
2019-04-28T20:37:28.338Z,9.57
2019-04-28T20:42:47.382Z,9.58
2019-04-28T20:47:51.967Z,9.56
2019-04-28T20:52:56.625Z,9.56
2019-04-28T20:58:02.607Z,9.56
2019-04-28T21:03:08.153Z,9.58
2019-04-28T21:08:12.818Z,9.58
2019-04-28T21:13:17.355Z,9.57
2019-04-28T21:18:21.802Z,9.55
2019-04-28T21:23:27.450Z,9.54
2019-04-28T21:28:31.916Z,9.52
2019-04-28T21:33:36.421Z,9.47
2019-04-28T21:38:40.913Z,9.45
2019-04-28T21:43:52.817Z,9.45
2019-04-28T21:48:59.134Z,9.45
2019-04-28T21:54:03.571Z,9.46
2019-04-28T21:59:08.061Z,9.44
2019-04-28T22:04:12.627Z,9.44
2019-04-28T22:09:18.892Z,9.43
2019-04-28T22:14:23.516Z,9.41
2019-04-28T22:19:28.129Z,9.40
2019-04-28T22:24:40.160Z,9.37
2019-04-28T22:29:44.577Z,9.32
2019-04-28T22:34:49.032Z,9.19
2019-04-28T22:39:53.453Z,9.09
2019-04-28T22:44:57.954Z,9.03
2019-04-28T22:50:02.633Z,8.99
2019-04-28T22:55:12.615Z,8.95
2019-04-28T23:00:36.803Z,8.92
2019-04-28T23:05:42.049Z,8.89
2019-04-28T23:10:47.619Z,8.88
2019-04-28T23:15:52.252Z,8.88
2019-04-28T23:21:05.001Z,8.88
2019-04-28T23:26:09.615Z,8.88
2019-04-28T23:31:14.173Z,8.90
2019-04-28T23:36:18.700Z,8.92
2019-04-28T23:41:30.887Z,8.94
2019-04-28T23:46:53.418Z,8.98
2019-04-28T23:52:15.659Z,9.00
2019-04-28T23:57:20.340Z,9.00
